createdAt,value
2022-10-19T00:00:14.490Z,13.51
2022-10-19T00:01:47.529Z,13.48
2022-10-19T00:03:22.355Z,13.44
2022-10-19T00:04:54.997Z,13.37
2022-10-19T00:06:28.721Z,13.34
2022-10-19T00:08:01.735Z,13.29
2022-10-19T00:09:33.384Z,13.21
2022-10-19T00:11:05.229Z,13.19
2022-10-19T00:12:36.949Z,13.20
2022-10-19T00:14:11.102Z,13.19
2022-10-19T00:15:42.800Z,13.18
2022-10-19T00:17:15.857Z,13.21
2022-10-19T00:18:47.540Z,13.22
2022-10-19T00:20:19.183Z,13.21
2022-10-19T00:23:22.956Z,13.16
2022-10-19T00:24:56.450Z,13.13
2022-10-19T00:26:28.172Z,13.10
2022-10-19T00:28:00.722Z,13.07
2022-10-19T00:29:32.838Z,13.03
2022-10-19T00:31:05.540Z,12.99
2022-10-19T00:32:38.527Z,12.99
2022-10-19T00:34:10.704Z,12.98
2022-10-19T00:35:42.604Z,12.96
2022-10-19T00:37:14.300Z,12.94
2022-10-19T00:38:46.313Z,12.92
2022-10-19T00:40:18.125Z,12.90
2022-10-19T00:41:49.838Z,12.90
2022-10-19T00:43:23.275Z,12.90
2022-10-19T00:45:06.398Z,12.93
2022-10-19T00:46:40.288Z,12.98
2022-10-19T00:48:17.291Z,12.99
2022-10-19T00:49:48.958Z,13.01
2022-10-19T00:51:22.347Z,13.01
2022-10-19T00:52:54.538Z,13.01
2022-10-19T00:54:26.229Z,13.01
2022-10-19T00:56:00.271Z,13.01
2022-10-19T00:57:32.684Z,13.01
2022-10-19T00:59:06.010Z,13.03
2022-10-19T01:00:37.775Z,13.03
2022-10-19T01:02:09.822Z,13.04
2022-10-19T01:03:43.608Z,13.02
2022-10-19T01:05:17.342Z,12.99
2022-10-19T01:06:49.059Z,12.99
2022-10-19T01:08:21.110Z,13.01
2022-10-19T01:09:53.090Z,12.98
2022-10-19T01:11:36.268Z,12.96
2022-10-19T01:13:26.758Z,12.93
2022-10-19T01:15:08.677Z,12.88
2022-10-19T01:16:50.112Z,12.81
2022-10-19T01:18:29.937Z,12.83
2022-10-19T01:20:34.071Z,12.85
2022-10-19T01:22:19.174Z,12.82
2022-10-19T01:24:37.127Z,12.75
2022-10-19T01:26:33.837Z,12.65
2022-10-19T01:28:25.971Z,12.57
2022-10-19T01:30:06.258Z,12.52
2022-10-19T01:31:47.151Z,12.48
2022-10-19T01:33:31.709Z,12.49
2022-10-19T01:35:08.102Z,12.47
2022-10-19T01:36:43.888Z,12.47
2022-10-19T01:38:23.417Z,12.48
2022-10-19T01:40:02.043Z,12.50
2022-10-19T01:41:41.591Z,12.46
2022-10-19T01:43:25.737Z,12.42
2022-10-19T01:45:03.911Z,12.41
2022-10-19T01:46:39.886Z,12.41
2022-10-19T01:48:15.602Z,12.40
2022-10-19T01:49:50.199Z,12.40
2022-10-19T01:51:26.183Z,12.41
2022-10-19T01:52:59.683Z,12.42
2022-10-19T01:54:37.740Z,12.45
2022-10-19T01:56:10.805Z,12.46
2022-10-19T01:57:46.846Z,12.48
2022-10-19T01:59:21.204Z,12.50
2022-10-19T02:00:54.704Z,12.48
2022-10-19T02:02:28.144Z,12.45
2022-10-19T02:04:01.099Z,12.39
2022-10-19T02:05:34.935Z,12.35
2022-10-19T02:07:08.401Z,12.27
2022-10-19T02:08:44.052Z,12.18
2022-10-19T02:10:15.928Z,12.08
2022-10-19T02:11:53.370Z,12.04
2022-10-19T02:13:29.921Z,12.00
2022-10-19T02:15:09.500Z,11.97
2022-10-19T02:16:46.840Z,11.97
2022-10-19T02:18:25.089Z,11.97
2022-10-19T02:19:57.742Z,12.00
2022-10-19T02:21:29.542Z,12.05
2022-10-19T02:23:03.649Z,12.06
2022-10-19T02:24:35.288Z,12.06
2022-10-19T02:26:07.283Z,12.02
2022-10-19T02:27:42.063Z,11.97
2022-10-19T02:29:15.445Z,11.90
2022-10-19T02:30:47.582Z,11.84
2022-10-19T02:32:19.214Z,11.80
2022-10-19T02:33:53.018Z,11.77
2022-10-19T02:35:24.746Z,11.76
2022-10-19T02:36:56.649Z,11.77
2022-10-19T02:38:28.743Z,11.79
2022-10-19T02:40:01.169Z,11.75
2022-10-19T02:41:36.948Z,11.73
2022-10-19T02:43:12.013Z,11.73
2022-10-19T02:44:50.256Z,11.75
2022-10-19T02:46:27.767Z,11.80
2022-10-19T02:48:03.916Z,11.76
2022-10-19T02:49:38.590Z,11.71
2022-10-19T02:51:28.747Z,11.66
2022-10-19T02:53:00.336Z,11.60
2022-10-19T02:54:32.357Z,11.59
2022-10-19T02:56:04.505Z,11.57
2022-10-19T02:57:36.846Z,11.57
2022-10-19T02:59:08.734Z,11.60
2022-10-19T03:00:40.532Z,11.65
2022-10-19T03:02:12.593Z,11.70
2022-10-19T03:03:44.297Z,11.75
2022-10-19T03:05:17.434Z,11.75
2022-10-19T03:06:49.070Z,11.74
2022-10-19T03:08:20.742Z,11.68
2022-10-19T03:09:52.609Z,11.64
2022-10-19T03:11:24.321Z,11.57
2022-10-19T03:12:57.486Z,11.51
2022-10-19T03:14:29.112Z,11.51
2022-10-19T03:16:06.393Z,11.56
2022-10-19T03:17:38.021Z,11.60
2022-10-19T03:19:09.785Z,11.63
2022-10-19T03:20:42.767Z,11.62
2022-10-19T03:22:14.965Z,11.58
2022-10-19T03:23:46.952Z,11.60
2022-10-19T03:25:18.822Z,11.57
2022-10-19T03:26:50.554Z,11.51
2022-10-19T03:28:22.205Z,11.44
2022-10-19T03:29:53.836Z,11.40
2022-10-19T03:31:27.108Z,11.37
2022-10-19T03:32:58.727Z,11.32
2022-10-19T03:34:30.364Z,11.28
2022-10-19T03:36:21.622Z,11.26
2022-10-19T03:37:53.271Z,11.30
2022-10-19T03:39:25.773Z,11.37
2022-10-19T03:40:57.413Z,11.36
2022-10-19T03:42:29.107Z,11.39
2022-10-19T03:45:32.513Z,11.41
2022-10-19T03:47:04.169Z,11.41
2022-10-19T03:48:35.994Z,11.39
2022-10-19T03:50:11.163Z,11.41
2022-10-19T03:51:44.279Z,11.39
2022-10-19T03:53:15.927Z,11.34
2022-10-19T03:54:49.763Z,11.32
2022-10-19T03:56:23.343Z,11.34
2022-10-19T03:57:55.046Z,11.36
2022-10-19T03:59:26.994Z,11.38
2022-10-19T04:00:58.765Z,11.40
2022-10-19T04:02:30.698Z,11.41
2022-10-19T04:04:04.065Z,11.41
2022-10-19T04:05:35.680Z,11.35
2022-10-19T04:07:08.661Z,11.29
2022-10-19T04:08:40.776Z,11.19
2022-10-19T04:10:12.404Z,11.18
2022-10-19T04:11:44.675Z,11.21
2022-10-19T04:13:16.291Z,11.18
2022-10-19T04:14:56.778Z,11.19
2022-10-19T04:16:30.639Z,11.16
2022-10-19T04:18:02.435Z,11.20
2022-10-19T04:19:34.054Z,11.22
2022-10-19T04:21:06.382Z,11.23
2022-10-19T04:22:39.340Z,11.24
2022-10-19T04:24:13.702Z,11.22
2022-10-19T04:25:45.319Z,11.18
2022-10-19T04:27:16.995Z,11.16
2022-10-19T04:28:48.762Z,11.14
2022-10-19T04:30:20.393Z,11.12
2022-10-19T04:31:53.023Z,11.10
2022-10-19T04:33:24.656Z,11.14
2022-10-19T04:34:56.255Z,11.17
2022-10-19T04:36:27.869Z,11.17
2022-10-19T04:38:00.915Z,11.17
2022-10-19T04:39:32.602Z,11.18
2022-10-19T04:41:05.694Z,11.17
2022-10-19T04:42:37.371Z,11.14
2022-10-19T04:44:09.540Z,11.14
2022-10-19T04:45:41.160Z,11.12
2022-10-19T04:47:12.828Z,11.14
2022-10-19T04:48:46.076Z,11.16
2022-10-19T04:50:17.756Z,11.16
2022-10-19T04:51:49.345Z,11.16
2022-10-19T04:53:22.429Z,11.17
2022-10-19T04:54:54.062Z,11.16
2022-10-19T04:56:27.036Z,11.18
2022-10-19T04:57:58.648Z,11.19
2022-10-19T04:59:30.312Z,11.19
2022-10-19T05:01:07.602Z,11.21
2022-10-19T05:02:43.051Z,11.22
2022-10-19T05:04:14.699Z,11.23
2022-10-19T05:05:46.365Z,11.25
2022-10-19T05:07:17.994Z,11.28
2022-10-19T05:08:51.022Z,11.25
2022-10-19T05:10:22.619Z,11.25
2022-10-19T05:11:54.426Z,11.28
2022-10-19T05:13:26.035Z,11.29
2022-10-19T05:14:57.706Z,11.31
2022-10-19T05:16:29.387Z,11.33
2022-10-19T05:18:01.084Z,11.30
2022-10-19T05:19:32.696Z,11.26
2022-10-19T05:21:06.160Z,11.22
2022-10-19T05:22:37.882Z,11.18
2022-10-19T05:24:13.190Z,11.16
2022-10-19T05:25:45.055Z,11.16
2022-10-19T05:27:16.655Z,11.16
2022-10-19T05:28:49.944Z,11.15
2022-10-19T05:30:21.964Z,11.13
2022-10-19T05:31:53.640Z,11.10
2022-10-19T05:33:25.323Z,11.13
2022-10-19T05:34:56.970Z,11.11
2022-10-19T05:36:32.269Z,11.11
2022-10-19T05:38:03.968Z,11.07
2022-10-19T05:39:36.978Z,11.06
2022-10-19T05:41:08.743Z,11.07
2022-10-19T05:42:40.380Z,11.06
2022-10-19T05:44:15.655Z,11.08
2022-10-19T05:45:47.264Z,11.08
2022-10-19T05:47:18.959Z,11.09
2022-10-19T05:48:50.565Z,11.11
2022-10-19T05:50:22.186Z,11.14
2022-10-19T05:51:54.671Z,11.16
2022-10-19T05:53:26.471Z,11.20
2022-10-19T05:54:59.498Z,11.21
2022-10-19T05:56:32.626Z,11.24
2022-10-19T05:58:04.265Z,11.28
2022-10-19T05:59:35.945Z,11.29
2022-10-19T06:01:09.311Z,11.28
2022-10-19T06:02:41.021Z,11.30
2022-10-19T06:04:14.848Z,11.29
2022-10-19T06:05:46.452Z,11.31
2022-10-19T06:07:18.076Z,11.31
2022-10-19T06:08:50.660Z,11.34
2022-10-19T06:10:24.046Z,11.32
2022-10-19T06:11:55.746Z,11.34
2022-10-19T06:13:27.439Z,11.36
2022-10-19T06:14:59.079Z,11.38
2022-10-19T06:16:31.834Z,11.39
2022-10-19T06:18:04.573Z,11.39
2022-10-19T06:19:36.863Z,11.43
2022-10-19T06:21:11.851Z,11.46
2022-10-19T06:22:43.469Z,11.49
2022-10-19T06:24:16.185Z,11.49
2022-10-19T06:25:49.201Z,11.49
2022-10-19T06:27:20.929Z,11.52
2022-10-19T06:28:56.156Z,11.56
2022-10-19T06:30:28.830Z,11.57
2022-10-19T06:32:00.547Z,11.60
2022-10-19T06:33:32.257Z,11.59
2022-10-19T06:35:04.342Z,11.59
2022-10-19T06:36:35.951Z,11.60
2022-10-19T06:38:07.685Z,11.62
2022-10-19T06:39:39.406Z,11.62
2022-10-19T06:41:12.971Z,11.61
2022-10-19T06:42:44.573Z,11.62
2022-10-19T06:44:16.394Z,11.65
2022-10-19T06:45:48.021Z,11.67
2022-10-19T06:47:19.667Z,11.70
2022-10-19T06:48:53.167Z,11.75
2022-10-19T06:50:24.767Z,11.77
2022-10-19T06:51:56.388Z,11.82
2022-10-19T06:53:29.213Z,11.87
2022-10-19T06:55:01.448Z,11.88
2022-10-19T06:56:34.465Z,11.88
2022-10-19T06:58:12.860Z,11.88
2022-10-19T06:59:46.023Z,11.87
2022-10-19T07:01:20.194Z,11.87
2022-10-19T07:02:51.897Z,11.90
2022-10-19T07:04:23.547Z,11.95
2022-10-19T07:05:56.374Z,11.99
2022-10-19T07:07:28.139Z,12.04
2022-10-19T07:08:59.886Z,12.10
2022-10-19T07:10:31.570Z,12.15
2022-10-19T07:12:04.768Z,12.20
2022-10-19T07:13:36.778Z,12.24
2022-10-19T07:15:09.308Z,12.28
2022-10-19T07:16:40.963Z,12.32
2022-10-19T07:18:12.774Z,12.35
2022-10-19T07:19:44.442Z,12.40
2022-10-19T07:21:17.131Z,12.44
2022-10-19T07:22:48.761Z,12.46
2022-10-19T07:24:20.433Z,12.49
2022-10-19T07:25:53.531Z,12.52
2022-10-19T07:27:26.652Z,12.57
2022-10-19T07:28:58.414Z,12.61
2022-10-19T07:30:30.049Z,12.65
2022-10-19T07:32:01.654Z,12.69
2022-10-19T07:33:33.544Z,12.71
2022-10-19T07:35:06.105Z,12.75
2022-10-19T07:36:37.850Z,12.80
2022-10-19T07:38:09.619Z,12.83
2022-10-19T07:39:41.220Z,12.85
2022-10-19T07:41:14.444Z,12.87
2022-10-19T07:42:47.436Z,12.91
2022-10-19T07:44:19.520Z,12.91
2022-10-19T07:45:58.546Z,12.93
2022-10-19T07:47:30.276Z,12.94
2022-10-19T07:49:02.027Z,12.96
2022-10-19T07:50:33.645Z,12.98
2022-10-19T07:52:05.433Z,13.02
2022-10-19T07:53:38.089Z,13.05
2022-10-19T07:55:09.855Z,13.11
2022-10-19T07:56:41.504Z,13.15
2022-10-19T07:58:14.609Z,13.21
2022-10-19T07:59:46.223Z,13.25
2022-10-19T08:01:19.495Z,13.33
2022-10-19T08:02:57.758Z,13.40
2022-10-19T08:04:59.618Z,13.48
2022-10-19T08:06:33.964Z,13.56
2022-10-19T08:08:05.886Z,13.63
2022-10-19T08:09:52.833Z,13.72
2022-10-19T08:11:27.632Z,13.86
2022-10-19T08:12:59.251Z,13.95
2022-10-19T08:14:32.270Z,14.05
2022-10-19T08:16:04.532Z,14.15
2022-10-19T08:17:36.935Z,14.23
2022-10-19T08:19:10.641Z,14.29
2022-10-19T08:20:42.550Z,14.32
2022-10-19T08:22:14.227Z,14.34
2022-10-19T08:23:45.951Z,14.37
2022-10-19T08:25:17.567Z,14.40
2022-10-19T08:26:51.250Z,14.42
2022-10-19T08:28:22.918Z,14.43
2022-10-19T08:29:56.043Z,14.46
2022-10-19T08:31:28.014Z,14.45
2022-10-19T08:32:59.625Z,14.49
2022-10-19T08:34:33.182Z,14.54
2022-10-19T08:36:05.688Z,14.55
2022-10-19T08:37:44.720Z,14.54
2022-10-19T08:39:17.843Z,14.58
2022-10-19T08:40:49.568Z,14.65
2022-10-19T08:42:25.341Z,14.72
2022-10-19T08:44:13.772Z,14.76
2022-10-19T08:45:53.590Z,14.82
2022-10-19T08:47:40.510Z,14.85
2022-10-19T08:49:19.241Z,14.83
2022-10-19T08:50:51.580Z,14.87
2022-10-19T08:52:32.087Z,14.93
2022-10-19T08:54:13.795Z,14.99
2022-10-19T08:56:02.256Z,15.07
2022-10-19T08:57:44.629Z,15.15
2022-10-19T08:59:27.162Z,15.22
2022-10-19T09:01:06.914Z,15.27
2022-10-19T09:02:50.819Z,15.32
2022-10-19T09:04:26.375Z,15.38
2022-10-19T09:06:05.789Z,15.37
2022-10-19T09:07:45.463Z,15.39
2022-10-19T09:09:20.513Z,15.36
2022-10-19T09:10:54.785Z,15.42
2022-10-19T09:12:36.568Z,15.48
2022-10-19T09:14:14.876Z,15.48
2022-10-19T09:15:48.457Z,15.54
2022-10-19T09:17:21.773Z,15.63
2022-10-19T09:20:33.434Z,15.77
2022-10-19T09:22:12.629Z,15.85
2022-10-19T09:23:52.012Z,15.91
2022-10-19T09:25:25.828Z,15.97
2022-10-19T09:26:59.461Z,16.05
2022-10-19T09:28:42.609Z,16.07
2022-10-19T09:30:19.144Z,16.12
2022-10-19T09:31:55.110Z,16.16
2022-10-19T09:33:33.259Z,16.22
2022-10-19T09:35:08.190Z,16.26
2022-10-19T09:36:50.368Z,16.29
2022-10-19T09:38:29.435Z,16.33
2022-10-19T09:40:01.117Z,16.36
2022-10-19T09:41:33.278Z,16.38
2022-10-19T09:43:19.436Z,16.45
2022-10-19T09:44:52.516Z,16.49
2022-10-19T09:46:36.174Z,16.48
2022-10-19T09:48:18.201Z,16.50
2022-10-19T09:50:05.074Z,16.52
2022-10-19T09:51:46.562Z,16.53
2022-10-19T09:53:21.042Z,16.56
2022-10-19T09:55:01.042Z,16.62
2022-10-19T09:56:36.909Z,16.64
2022-10-19T09:58:17.746Z,16.65
2022-10-19T09:59:54.611Z,16.67
2022-10-19T10:01:41.795Z,16.69
2022-10-19T10:03:27.045Z,16.65
2022-10-19T10:05:06.825Z,16.69
2022-10-19T10:06:39.093Z,16.72
2022-10-19T10:08:14.635Z,16.75
2022-10-19T10:09:46.719Z,16.79
2022-10-19T10:11:24.911Z,16.84
2022-10-19T10:12:58.446Z,16.86
2022-10-19T10:14:33.238Z,16.90
2022-10-19T10:16:07.989Z,16.93
2022-10-19T10:17:39.663Z,16.95
2022-10-19T10:19:13.346Z,16.97
2022-10-19T10:20:59.608Z,16.93
2022-10-19T10:22:33.876Z,16.86
2022-10-19T10:24:16.787Z,16.88
2022-10-19T10:25:49.289Z,16.94
2022-10-19T10:27:30.263Z,16.96
2022-10-19T10:29:01.963Z,17.00
2022-10-19T10:30:36.792Z,17.03
2022-10-19T10:32:12.493Z,17.03
2022-10-19T10:33:45.569Z,17.03
2022-10-19T10:35:21.166Z,17.08
2022-10-19T10:36:54.620Z,17.12
2022-10-19T10:38:28.677Z,17.13
2022-10-19T10:40:04.608Z,17.09
2022-10-19T10:41:39.262Z,17.05
2022-10-19T10:43:16.892Z,17.07
2022-10-19T10:44:51.726Z,17.11
2022-10-19T10:46:27.400Z,17.15
2022-10-19T10:49:52.946Z,17.22
2022-10-19T10:51:33.012Z,17.27
2022-10-19T10:53:26.867Z,17.29
2022-10-19T10:55:02.216Z,17.30
2022-10-19T10:56:35.155Z,17.31
2022-10-19T10:58:15.309Z,17.34
2022-10-19T10:59:55.212Z,17.41
2022-10-19T11:01:30.525Z,17.46
2022-10-19T11:03:12.072Z,17.43
2022-10-19T11:04:52.087Z,17.41
2022-10-19T11:06:25.902Z,17.33
2022-10-19T11:08:03.428Z,17.34
2022-10-19T11:09:42.325Z,17.36
2022-10-19T11:11:17.743Z,17.41
2022-10-19T11:12:56.357Z,17.44
2022-10-19T11:14:38.765Z,17.49
2022-10-19T11:16:13.734Z,17.51
2022-10-19T11:17:55.779Z,17.50
2022-10-19T11:19:33.225Z,17.50
2022-10-19T11:21:09.984Z,17.49
2022-10-19T11:22:46.821Z,17.49
2022-10-19T11:24:25.108Z,17.48
2022-10-19T11:26:10.076Z,17.48
2022-10-19T11:27:49.612Z,17.45
2022-10-19T11:29:35.770Z,17.46
2022-10-19T11:31:16.246Z,17.48
2022-10-19T11:33:00.116Z,17.49
2022-10-19T11:34:50.345Z,17.49
2022-10-19T11:36:42.174Z,17.48
2022-10-19T11:38:30.129Z,17.50
2022-10-19T11:40:11.592Z,17.50
2022-10-19T11:41:50.541Z,17.48
2022-10-19T11:43:30.902Z,17.49
2022-10-19T11:45:13.867Z,17.53
2022-10-19T11:47:00.523Z,17.58
2022-10-19T11:48:52.854Z,17.59
2022-10-19T11:50:42.242Z,17.64
2022-10-19T11:52:20.256Z,17.67
2022-10-19T11:54:05.874Z,17.67
2022-10-19T11:55:42.874Z,17.71
2022-10-19T11:57:20.333Z,17.71
2022-10-19T11:59:00.365Z,17.66
2022-10-19T12:00:39.468Z,17.61
2022-10-19T12:02:33.137Z,17.66
2022-10-19T12:04:22.695Z,17.71
2022-10-19T12:06:04.176Z,17.72
2022-10-19T12:08:00.085Z,17.73
2022-10-19T12:09:46.626Z,17.75
2022-10-19T12:11:28.562Z,17.73
2022-10-19T12:13:05.179Z,17.72
2022-10-19T12:14:40.850Z,17.73
2022-10-19T12:16:14.422Z,17.77
2022-10-19T12:17:50.078Z,17.80
2022-10-19T12:19:26.648Z,17.85
2022-10-19T12:21:02.110Z,17.86
2022-10-19T12:22:35.084Z,17.91
2022-10-19T12:24:14.461Z,17.98
2022-10-19T12:25:46.700Z,17.98
2022-10-19T12:27:26.789Z,18.02
2022-10-19T12:29:03.628Z,18.08
2022-10-19T12:30:35.377Z,18.12
2022-10-19T12:32:08.090Z,18.23
2022-10-19T12:33:49.168Z,18.36
2022-10-19T12:35:32.540Z,18.48
2022-10-19T12:37:11.360Z,18.59
2022-10-19T12:38:59.722Z,18.70
2022-10-19T12:40:37.505Z,18.81
2022-10-19T12:42:17.258Z,18.87
2022-10-19T12:43:56.424Z,18.90
2022-10-19T12:45:33.558Z,19.05
2022-10-19T12:47:11.417Z,19.17
2022-10-19T12:48:43.103Z,19.21
2022-10-19T12:50:14.976Z,19.27
2022-10-19T12:51:47.319Z,19.33
2022-10-19T12:53:23.851Z,19.41
2022-10-19T12:55:09.634Z,19.49
2022-10-19T12:56:48.895Z,19.59
2022-10-19T12:58:22.951Z,19.64
2022-10-19T13:00:00.466Z,19.71
2022-10-19T13:01:44.547Z,19.78
2022-10-19T13:03:25.095Z,19.89
2022-10-19T13:04:59.715Z,19.96
2022-10-19T13:06:34.134Z,20.03
2022-10-19T13:08:09.362Z,20.10
2022-10-19T13:09:46.623Z,20.18
2022-10-19T13:11:19.301Z,20.22
2022-10-19T13:12:51.873Z,20.31
2022-10-19T13:14:43.590Z,20.39
2022-10-19T13:17:06.063Z,20.45
2022-10-19T13:19:19.592Z,20.55
2022-10-19T13:20:53.069Z,20.64
2022-10-19T13:22:27.890Z,20.67
2022-10-19T13:24:20.195Z,20.74
2022-10-19T13:26:33.048Z,20.87
2022-10-19T13:28:36.398Z,20.95
2022-10-19T13:30:44.729Z,21.00
2022-10-19T13:32:46.584Z,21.07
2022-10-19T13:34:19.869Z,21.18
2022-10-19T13:36:06.684Z,21.24
2022-10-19T13:37:38.320Z,21.32
2022-10-19T13:39:15.315Z,21.41
2022-10-19T13:41:03.064Z,21.44
2022-10-19T13:42:35.085Z,21.49
2022-10-19T13:44:20.505Z,21.53
2022-10-19T13:45:54.740Z,21.53
2022-10-19T13:49:52.140Z,21.48
2022-10-19T13:51:31.841Z,21.42
2022-10-19T13:53:14.135Z,21.35
2022-10-19T13:55:22.017Z,21.29
2022-10-19T13:57:11.069Z,21.26
2022-10-19T13:59:15.164Z,21.17
2022-10-19T14:01:05.999Z,21.09
2022-10-19T14:03:00.075Z,21.02
2022-10-19T14:04:46.678Z,20.95
2022-10-19T14:06:28.591Z,20.84
2022-10-19T14:08:11.872Z,20.74
2022-10-19T14:09:58.742Z,20.71
2022-10-19T14:11:33.831Z,20.66
2022-10-19T14:13:06.755Z,20.60
2022-10-19T14:14:43.280Z,20.56
2022-10-19T14:16:20.399Z,20.51
2022-10-19T14:17:52.082Z,20.47
2022-10-19T14:19:28.209Z,20.45
2022-10-19T14:21:01.679Z,20.43
2022-10-19T14:22:40.623Z,20.40
2022-10-19T14:24:28.904Z,20.35
2022-10-19T14:26:03.370Z,20.32
2022-10-19T14:27:35.743Z,20.28
2022-10-19T14:29:13.315Z,20.21
2022-10-19T14:30:53.787Z,20.14
2022-10-19T14:32:27.605Z,20.14
2022-10-19T14:34:02.458Z,20.13
2022-10-19T14:35:36.921Z,20.11
2022-10-19T14:37:16.335Z,20.06
2022-10-19T14:38:54.762Z,20.04
2022-10-19T14:40:29.013Z,20.00
2022-10-19T14:42:04.748Z,19.97
2022-10-19T14:43:36.457Z,19.96
2022-10-19T14:45:17.632Z,19.95
2022-10-19T14:46:49.321Z,19.91
2022-10-19T14:48:21.211Z,19.91
2022-10-19T14:49:53.426Z,19.90
2022-10-19T14:51:35.141Z,19.87
2022-10-19T14:53:21.098Z,19.83
2022-10-19T14:54:55.598Z,19.85
2022-10-19T14:56:34.627Z,19.85
2022-10-19T14:58:12.918Z,19.82
2022-10-19T14:59:47.563Z,19.81
2022-10-19T15:01:20.857Z,19.81
2022-10-19T15:02:58.445Z,19.81
2022-10-19T15:04:33.618Z,19.82
2022-10-19T15:06:07.341Z,19.83
2022-10-19T15:07:40.795Z,19.84
2022-10-19T15:09:36.726Z,19.83
2022-10-19T15:11:25.879Z,19.80
2022-10-19T15:13:01.631Z,19.80
2022-10-19T15:14:33.753Z,19.78
2022-10-19T15:16:05.891Z,19.74
2022-10-19T15:17:51.678Z,19.73
2022-10-19T15:19:28.931Z,19.69
2022-10-19T15:21:12.117Z,19.67
2022-10-19T15:22:44.509Z,19.60
2022-10-19T15:24:26.485Z,19.58
2022-10-19T15:26:00.551Z,19.55
2022-10-19T15:27:35.219Z,19.54
2022-10-19T15:29:08.909Z,19.49
2022-10-19T15:30:40.669Z,19.46
2022-10-19T15:32:14.951Z,19.43
2022-10-19T15:33:50.315Z,19.41
2022-10-19T15:35:28.346Z,19.37
2022-10-19T15:37:01.505Z,19.35
2022-10-19T15:38:34.748Z,19.30
2022-10-19T15:40:12.699Z,19.24
2022-10-19T15:41:44.718Z,19.20
2022-10-19T15:43:44.032Z,19.17
2022-10-19T15:45:32.732Z,19.11
2022-10-19T15:47:22.439Z,19.05
2022-10-19T15:48:55.441Z,18.98
2022-10-19T15:50:36.430Z,18.89
2022-10-19T15:52:15.057Z,18.83
2022-10-19T15:53:46.675Z,18.79
2022-10-19T15:55:18.319Z,18.76
2022-10-19T15:56:52.471Z,18.74
2022-10-19T15:58:24.252Z,18.70
2022-10-19T16:00:00.239Z,18.66
2022-10-19T16:01:34.003Z,18.61
2022-10-19T16:03:06.465Z,18.57
2022-10-19T16:04:38.112Z,18.53
2022-10-19T16:06:10.468Z,18.51
2022-10-19T16:07:42.176Z,18.48
2022-10-19T16:09:17.909Z,18.44
2022-10-19T16:10:49.634Z,18.41
2022-10-19T16:12:23.450Z,18.36
2022-10-19T16:13:55.188Z,18.27
2022-10-19T16:15:28.183Z,18.23
2022-10-19T16:17:02.615Z,18.17
2022-10-19T16:18:34.268Z,18.09
2022-10-19T16:20:06.784Z,18.06
2022-10-19T16:21:38.730Z,18.01
2022-10-19T16:23:12.534Z,17.98
2022-10-19T16:24:44.213Z,17.94
2022-10-19T16:26:16.701Z,17.90
2022-10-19T16:27:48.414Z,17.88
2022-10-19T16:29:20.111Z,17.87
2022-10-19T16:30:53.961Z,17.81
2022-10-19T16:32:25.608Z,17.74
2022-10-19T16:33:57.252Z,17.67
2022-10-19T16:35:29.097Z,17.58
2022-10-19T16:37:04.106Z,17.52
2022-10-19T16:38:38.867Z,17.49
2022-10-19T16:40:11.344Z,17.46
2022-10-19T16:41:43.970Z,17.44
2022-10-19T16:43:15.708Z,17.40
2022-10-19T16:44:47.398Z,17.39
2022-10-19T16:46:22.638Z,17.38
2022-10-19T16:47:54.306Z,17.34
2022-10-19T16:49:26.393Z,17.33
2022-10-19T16:51:35.660Z,17.23
2022-10-19T16:53:12.312Z,17.11
2022-10-19T16:54:43.963Z,17.06
2022-10-19T16:56:15.588Z,17.00
2022-10-19T16:57:47.263Z,16.93
2022-10-19T16:59:19.484Z,16.86
2022-10-19T17:00:51.103Z,16.80
2022-10-19T17:02:24.188Z,16.77
2022-10-19T17:03:56.130Z,16.79
2022-10-19T17:05:27.730Z,16.77
2022-10-19T17:06:59.411Z,16.78
2022-10-19T17:08:37.165Z,16.79
2022-10-19T17:10:23.583Z,16.76
2022-10-19T17:11:55.760Z,16.73
2022-10-19T17:13:27.448Z,16.67
2022-10-19T17:15:23.611Z,16.63
2022-10-19T17:16:50.753Z,16.60
2022-10-19T17:18:23.766Z,16.56
2022-10-19T17:19:55.482Z,16.53
2022-10-19T17:21:29.125Z,16.50
2022-10-19T17:23:00.796Z,16.49
2022-10-19T17:24:32.717Z,16.49
2022-10-19T17:26:05.479Z,16.50
2022-10-19T17:27:37.170Z,16.50
2022-10-19T17:29:09.848Z,16.48
2022-10-19T17:30:42.155Z,16.43
2022-10-19T17:32:13.876Z,16.39
2022-10-19T17:33:49.505Z,16.35
2022-10-19T17:35:21.162Z,16.35
2022-10-19T17:36:52.862Z,16.38
2022-10-19T17:38:24.721Z,16.44
2022-10-19T17:39:56.353Z,16.46
2022-10-19T17:41:29.303Z,16.46
2022-10-19T17:43:00.966Z,16.47
2022-10-19T17:44:32.657Z,16.49
2022-10-19T17:46:07.198Z,16.47
2022-10-19T17:47:38.878Z,16.50
2022-10-19T17:49:12.609Z,16.52
2022-10-19T17:50:44.290Z,16.52
2022-10-19T17:52:16.040Z,16.52
2022-10-19T17:53:49.341Z,16.49
2022-10-19T17:56:53.630Z,16.46
2022-10-19T17:58:25.645Z,16.47
2022-10-19T17:59:57.333Z,16.45
2022-10-19T18:01:29.552Z,16.46
2022-10-19T18:03:01.325Z,16.48
2022-10-19T18:06:10.740Z,16.47
2022-10-19T18:07:43.935Z,16.47
2022-10-19T18:09:15.762Z,16.44
2022-10-19T18:10:47.549Z,16.44
2022-10-19T18:12:19.201Z,16.44
2022-10-19T18:13:52.403Z,16.43
2022-10-19T18:15:24.124Z,16.39
2022-10-19T18:16:55.926Z,16.36
2022-10-19T18:18:29.439Z,16.34
2022-10-19T18:20:02.522Z,16.31
2022-10-19T18:21:38.493Z,16.29
2022-10-19T18:23:10.275Z,16.26
2022-10-19T18:24:42.017Z,16.25
2022-10-19T18:26:15.715Z,16.21
2022-10-19T18:27:47.390Z,16.19
2022-10-19T18:29:21.364Z,16.19
2022-10-19T18:30:53.011Z,16.16
2022-10-19T18:32:24.796Z,16.15
2022-10-19T18:33:58.231Z,16.14
2022-10-19T18:35:34.824Z,16.12
2022-10-19T18:37:07.262Z,16.10
2022-10-19T18:38:39.593Z,16.07
2022-10-19T18:40:11.924Z,16.06
2022-10-19T18:41:43.744Z,16.02
2022-10-19T18:43:15.515Z,15.99
2022-10-19T18:44:47.322Z,15.98
2022-10-19T18:46:20.452Z,15.98
2022-10-19T18:47:52.193Z,15.94
2022-10-19T18:49:24.438Z,15.92
2022-10-19T18:50:57.924Z,15.91
2022-10-19T18:52:29.781Z,15.90
2022-10-19T18:54:01.545Z,15.88
2022-10-19T18:55:33.320Z,15.84
2022-10-19T18:57:05.175Z,15.84
2022-10-19T18:58:36.996Z,15.82
2022-10-19T19:00:09.827Z,15.83
2022-10-19T19:01:41.627Z,15.78
2022-10-19T19:03:13.454Z,15.76
2022-10-19T19:04:45.239Z,15.74
2022-10-19T19:06:20.980Z,15.74
2022-10-19T19:07:52.773Z,15.73
2022-10-19T19:09:24.447Z,15.70
2022-10-19T19:10:56.702Z,15.68
2022-10-19T19:12:28.416Z,15.66
2022-10-19T19:14:01.827Z,15.60
2022-10-19T19:15:33.493Z,15.57
2022-10-19T19:17:05.101Z,15.54
2022-10-19T19:18:36.806Z,15.48
2022-10-19T19:20:09.203Z,15.47
2022-10-19T19:21:44.319Z,15.45
2022-10-19T19:23:16.531Z,15.44
2022-10-19T19:24:49.481Z,15.46
2022-10-19T19:26:23.090Z,15.43
2022-10-19T19:27:54.744Z,15.43
2022-10-19T19:29:26.487Z,15.42
2022-10-19T19:30:58.163Z,15.39
2022-10-19T19:32:29.864Z,15.37
2022-10-19T19:34:02.829Z,15.34
2022-10-19T19:35:34.518Z,15.30
2022-10-19T19:37:10.438Z,15.26
2022-10-19T19:38:43.858Z,15.24
2022-10-19T19:40:15.684Z,15.21
2022-10-19T19:41:48.345Z,15.18
2022-10-19T19:43:20.068Z,15.13
2022-10-19T19:44:52.531Z,15.09
2022-10-19T19:46:24.489Z,15.01
2022-10-19T19:47:56.239Z,14.98
2022-10-19T19:49:28.061Z,14.98
2022-10-19T19:50:59.777Z,15.00
2022-10-19T19:52:35.812Z,15.00
2022-10-19T19:54:09.879Z,14.96
2022-10-19T19:55:44.268Z,14.98
2022-10-19T19:57:15.933Z,14.96
2022-10-19T19:58:48.033Z,14.96
2022-10-19T20:00:20.168Z,14.95
2022-10-19T20:01:51.952Z,14.93
2022-10-19T20:03:23.725Z,14.94
2022-10-19T20:04:56.976Z,14.93
2022-10-19T20:06:29.447Z,14.92
2022-10-19T20:08:02.525Z,14.91
2022-10-19T20:09:35.153Z,14.91
2022-10-19T20:11:10.069Z,14.90
2022-10-19T20:12:43.546Z,14.90
2022-10-19T20:14:15.761Z,14.84
2022-10-19T20:15:47.813Z,14.78
2022-10-19T20:17:23.711Z,14.75
2022-10-19T20:18:59.542Z,14.73
2022-10-19T20:20:31.226Z,14.73
2022-10-19T20:22:03.375Z,14.70
2022-10-19T20:23:36.407Z,14.68
2022-10-19T20:25:11.818Z,14.60
2022-10-19T20:26:43.493Z,14.58
2022-10-19T20:28:15.350Z,14.58
2022-10-19T20:29:47.071Z,14.60
2022-10-19T20:31:19.516Z,14.59
2022-10-19T20:32:54.843Z,14.58
2022-10-19T20:34:26.740Z,14.57
2022-10-19T20:36:03.304Z,14.55
2022-10-19T20:37:35.021Z,14.51
2022-10-19T20:39:08.769Z,14.49
2022-10-19T20:40:40.804Z,14.48
2022-10-19T20:42:13.724Z,14.45